sensor_id;sensor_type;location;lat;lon;timestamp;temperature;humidity
8684;DHT22;4379;59.744;18.206;2023-03-21T00:01:52;-0.30;99.90
8684;DHT22;4379;59.744;18.206;2023-03-21T00:04:21;-0.30;99.90
8684;DHT22;4379;59.744;18.206;2023-03-21T00:06:49;-0.40;99.90
8684;DHT22;4379;59.744;18.206;2023-03-21T00:09:17;-0.40;99.90
8684;DHT22;4379;59.744;18.206;2023-03-21T00:11:44;-0.30;99.90
8684;DHT22;4379;59.744;18.206;2023-03-21T00:14:11;-0.30;99.90
8684;DHT22;4379;59.744;18.206;2023-03-21T00:16:41;-0.20;99.90
8684;DHT22;4379;59.744;18.206;2023-03-21T00:19:12;-0.30;99.90
8684;DHT22;4379;59.744;18.206;2023-03-21T00:21:40;-0.30;99.90
8684;DHT22;4379;59.744;18.206;2023-03-21T00:24:28;-0.30;99.90
8684;DHT22;4379;59.744;18.206;2023-03-21T00:26:56;-0.30;99.90
8684;DHT22;4379;59.744;18.206;2023-03-21T00:29:43;-0.50;99.90
8684;DHT22;4379;59.744;18.206;2023-03-21T00:32:10;-0.50;99.90
8684;DHT22;4379;59.744;18.206;2023-03-21T00:34:37;-0.40;99.90
8684;DHT22;4379;59.744;18.206;2023-03-21T00:37:20;-0.50;99.90
8684;DHT22;4379;59.744;18.206;2023-03-21T00:39:48;-0.50;99.90
8684;DHT22;4379;59.744;18.206;2023-03-21T00:42:15;-0.50;99.90
8684;DHT22;4379;59.744;18.206;2023-03-21T00:44:43;-0.50;99.90
8684;DHT22;4379;59.744;18.206;2023-03-21T00:47:11;-0.30;99.90
8684;DHT22;4379;59.744;18.206;2023-03-21T00:49:39;-0.40;99.90
8684;DHT22;4379;59.744;18.206;2023-03-21T00:52:08;-0.50;99.90
8684;DHT22;4379;59.744;18.206;2023-03-21T00:54:56;-0.50;99.90
8684;DHT22;4379;59.744;18.206;2023-03-21T00:57:23;-0.40;99.90
8684;DHT22;4379;59.744;18.206;2023-03-21T01:00:06;-0.30;99.90
8684;DHT22;4379;59.744;18.206;2023-03-21T01:02:36;-0.30;99.90
8684;DHT22;4379;59.744;18.206;2023-03-21T01:05:04;-0.20;99.90
8684;DHT22;4379;59.744;18.206;2023-03-21T01:07:31;-0.30;99.90
8684;DHT22;4379;59.744;18.206;2023-03-21T01:09:58;-0.50;99.90
8684;DHT22;4379;59.744;18.206;2023-03-21T01:12:26;-0.50;99.90
8684;DHT22;4379;59.744;18.206;2023-03-21T01:14:54;-0.60;99.90
8684;DHT22;4379;59.744;18.206;2023-03-21T01:17:21;-0.50;99.90
8684;DHT22;4379;59.744;18.206;2023-03-21T01:19:48;-0.50;99.90
8684;DHT22;4379;59.744;18.206;2023-03-21T01:22:19;-0.60;99.90
8684;DHT22;4379;59.744;18.206;2023-03-21T01:24:47;-0.60;99.90
8684;DHT22;4379;59.744;18.206;2023-03-21T01:27:34;-0.60;99.90
8684;DHT22;4379;59.744;18.206;2023-03-21T01:30:02;-0.60;99.90
8684;DHT22;4379;59.744;18.206;2023-03-21T01:32:34;-0.60;99.90
8684;DHT22;4379;59.744;18.206;2023-03-21T01:35:01;-0.60;99.90
8684;DHT22;4379;59.744;18.206;2023-03-21T01:37:28;-0.60;99.90
8684;DHT22;4379;59.744;18.206;2023-03-21T01:39:56;-0.60;99.90
8684;DHT22;4379;59.744;18.206;2023-03-21T01:42:23;-0.70;99.90
8684;DHT22;4379;59.744;18.206;2023-03-21T01:44:56;-0.60;99.90
8684;DHT22;4379;59.744;18.206;2023-03-21T01:47:24;-0.60;99.90
8684;DHT22;4379;59.744;18.206;2023-03-21T01:49:54;-0.60;99.90
8684;DHT22;4379;59.744;18.206;2023-03-21T01:52:32;-0.60;99.90
8684;DHT22;4379;59.744;18.206;2023-03-21T01:55:05;-0.70;99.90
8684;DHT22;4379;59.744;18.206;2023-03-21T01:57:39;-0.60;99.90
8684;DHT22;4379;59.744;18.206;2023-03-21T02:00:23;-0.60;99.90
8684;DHT22;4379;59.744;18.206;2023-03-21T02:02:52;-0.90;99.90
8684;DHT22;4379;59.744;18.206;2023-03-21T02:08:12;-1.00;99.90
8684;DHT22;4379;59.744;18.206;2023-03-21T02:10:42;-1.00;99.90
8684;DHT22;4379;59.744;18.206;2023-03-21T02:13:09;-1.00;99.90
8684;DHT22;4379;59.744;18.206;2023-03-21T02:15:40;-1.00;99.90
8684;DHT22;4379;59.744;18.206;2023-03-21T02:40:29;-0.90;99.90
8684;DHT22;4379;59.744;18.206;2023-03-21T02:46:00;-1.00;99.90
8684;DHT22;4379;59.744;18.206;2023-03-21T02:48:35;-1.10;99.90
8684;DHT22;4379;59.744;18.206;2023-03-21T02:51:19;-1.10;99.90
8684;DHT22;4379;59.744;18.206;2023-03-21T02:53:52;-1.10;99.90
8684;DHT22;4379;59.744;18.206;2023-03-21T02:56:40;-1.10;99.90
8684;DHT22;4379;59.744;18.206;2023-03-21T02:59:09;-1.20;99.90
8684;DHT22;4379;59.744;18.206;2023-03-21T03:01:36;-1.20;99.90
8684;DHT22;4379;59.744;18.206;2023-03-21T03:04:15;-1.20;99.90
8684;DHT22;4379;59.744;18.206;2023-03-21T03:12:03;-1.40;99.90
8684;DHT22;4379;59.744;18.206;2023-03-21T03:14:49;-1.40;99.90
8684;DHT22;4379;59.744;18.206;2023-03-21T03:17:49;-1.50;99.90
8684;DHT22;4379;59.744;18.206;2023-03-21T03:20:32;-1.40;99.90
8684;DHT22;4379;59.744;18.206;2023-03-21T03:23:27;-1.40;99.90
8684;DHT22;4379;59.744;18.206;2023-03-21T03:28:30;-1.30;99.90
8684;DHT22;4379;59.744;18.206;2023-03-21T03:30:59;-1.40;99.90
8684;DHT22;4379;59.744;18.206;2023-03-21T03:33:37;-1.40;99.90
8684;DHT22;4379;59.744;18.206;2023-03-21T03:36:09;-1.40;99.90
8684;DHT22;4379;59.744;18.206;2023-03-21T03:38:50;-1.40;99.90
8684;DHT22;4379;59.744;18.206;2023-03-21T03:41:24;-1.40;99.90
8684;DHT22;4379;59.744;18.206;2023-03-21T03:43:55;-1.50;99.90
8684;DHT22;4379;59.744;18.206;2023-03-21T03:46:40;-1.40;99.90
8684;DHT22;4379;59.744;18.206;2023-03-21T03:49:24;-1.40;99.90
8684;DHT22;4379;59.744;18.206;2023-03-21T03:51:54;-1.40;99.90
8684;DHT22;4379;59.744;18.206;2023-03-21T03:54:28;-1.50;99.90
8684;DHT22;4379;59.744;18.206;2023-03-21T03:56:57;-1.60;99.90
8684;DHT22;4379;59.744;18.206;2023-03-21T03:59:24;-1.60;99.90
8684;DHT22;4379;59.744;18.206;2023-03-21T04:01:51;-1.70;99.90
8684;DHT22;4379;59.744;18.206;2023-03-21T04:04:18;-1.70;99.90
8684;DHT22;4379;59.744;18.206;2023-03-21T04:06:49;-1.70;99.90
8684;DHT22;4379;59.744;18.206;2023-03-21T04:09:17;-1.60;99.90
8684;DHT22;4379;59.744;18.206;2023-03-21T04:11:55;-1.60;99.90
8684;DHT22;4379;59.744;18.206;2023-03-21T04:14:23;-1.60;99.90
8684;DHT22;4379;59.744;18.206;2023-03-21T04:16:58;-1.70;99.90
8684;DHT22;4379;59.744;18.206;2023-03-21T04:19:26;-1.70;99.90
8684;DHT22;4379;59.744;18.206;2023-03-21T04:21:53;-1.80;99.90
8684;DHT22;4379;59.744;18.206;2023-03-21T04:24:20;-1.80;99.90
8684;DHT22;4379;59.744;18.206;2023-03-21T04:26:48;-1.80;99.90
8684;DHT22;4379;59.744;18.206;2023-03-21T04:29:15;-1.70;99.90
8684;DHT22;4379;59.744;18.206;2023-03-21T04:31:42;-1.60;99.90
8684;DHT22;4379;59.744;18.206;2023-03-21T04:34:10;-1.80;99.90
8684;DHT22;4379;59.744;18.206;2023-03-21T04:36:38;-1.70;99.90
8684;DHT22;4379;59.744;18.206;2023-03-21T04:39:09;-1.70;99.90
8684;DHT22;4379;59.744;18.206;2023-03-21T04:41:40;-1.70;99.90
8684;DHT22;4379;59.744;18.206;2023-03-21T04:44:08;-1.80;99.90
8684;DHT22;4379;59.744;18.206;2023-03-21T04:46:35;-1.80;99.90
8684;DHT22;4379;59.744;18.206;2023-03-21T04:49:03;-1.80;99.90
8684;DHT22;4379;59.744;18.206;2023-03-21T04:51:30;-1.80;99.90
8684;DHT22;4379;59.744;18.206;2023-03-21T04:53:58;-1.70;99.90
8684;DHT22;4379;59.744;18.206;2023-03-21T04:56:26;-1.70;99.90
8684;DHT22;4379;59.744;18.206;2023-03-21T04:59:09;-1.80;99.90
8684;DHT22;4379;59.744;18.206;2023-03-21T05:01:36;-1.70;99.90
8684;DHT22;4379;59.744;18.206;2023-03-21T05:04:04;-1.80;99.90
8684;DHT22;4379;59.744;18.206;2023-03-21T05:06:32;-1.80;99.90
8684;DHT22;4379;59.744;18.206;2023-03-21T05:09:00;-1.70;99.90
8684;DHT22;4379;59.744;18.206;2023-03-21T05:11:28;-1.70;99.90
8684;DHT22;4379;59.744;18.206;2023-03-21T05:13:58;-1.80;99.90
8684;DHT22;4379;59.744;18.206;2023-03-21T05:16:25;-1.80;99.90
8684;DHT22;4379;59.744;18.206;2023-03-21T05:18:57;-1.90;99.90
8684;DHT22;4379;59.744;18.206;2023-03-21T05:21:25;-2.00;99.90
8684;DHT22;4379;59.744;18.206;2023-03-21T05:23:55;-1.90;99.90
8684;DHT22;4379;59.744;18.206;2023-03-21T05:26:24;-1.80;99.90
8684;DHT22;4379;59.744;18.206;2023-03-21T05:28:51;-1.70;99.90
8684;DHT22;4379;59.744;18.206;2023-03-21T05:31:19;-1.60;99.90
8684;DHT22;4379;59.744;18.206;2023-03-21T05:33:47;-1.50;99.90
8684;DHT22;4379;59.744;18.206;2023-03-21T05:36:14;-1.50;99.90
8684;DHT22;4379;59.744;18.206;2023-03-21T05:38:41;-1.40;99.90
8684;DHT22;4379;59.744;18.206;2023-03-21T05:41:15;-1.30;99.90
8684;DHT22;4379;59.744;18.206;2023-03-21T05:43:45;-1.20;99.90
8684;DHT22;4379;59.744;18.206;2023-03-21T05:46:12;-1.20;99.90
8684;DHT22;4379;59.744;18.206;2023-03-21T05:48:39;-1.10;99.90
8684;DHT22;4379;59.744;18.206;2023-03-21T05:51:06;-1.20;99.90
8684;DHT22;4379;59.744;18.206;2023-03-21T05:53:34;-1.20;99.90
8684;DHT22;4379;59.744;18.206;2023-03-21T05:56:01;-1.20;99.90
8684;DHT22;4379;59.744;18.206;2023-03-21T05:58:28;-1.10;99.90
8684;DHT22;4379;59.744;18.206;2023-03-21T06:00:56;-1.00;99.90
8684;DHT22;4379;59.744;18.206;2023-03-21T06:03:23;-0.80;99.90
8684;DHT22;4379;59.744;18.206;2023-03-21T06:05:51;-0.90;99.90
8684;DHT22;4379;59.744;18.206;2023-03-21T06:08:18;-0.90;99.90
8684;DHT22;4379;59.744;18.206;2023-03-21T06:10:45;-0.60;99.90
8684;DHT22;4379;59.744;18.206;2023-03-21T06:13:13;-0.50;99.90
8684;DHT22;4379;59.744;18.206;2023-03-21T06:15:40;-0.50;99.90
8684;DHT22;4379;59.744;18.206;2023-03-21T06:18:07;-0.60;99.90
8684;DHT22;4379;59.744;18.206;2023-03-21T06:20:34;-0.60;99.90
8684;DHT22;4379;59.744;18.206;2023-03-21T06:23:02;-0.60;99.90
8684;DHT22;4379;59.744;18.206;2023-03-21T06:25:30;-0.60;99.90
8684;DHT22;4379;59.744;18.206;2023-03-21T06:27:57;-0.60;99.90
8684;DHT22;4379;59.744;18.206;2023-03-21T06:30:24;-0.60;99.90
8684;DHT22;4379;59.744;18.206;2023-03-21T06:32:52;-0.40;99.90
8684;DHT22;4379;59.744;18.206;2023-03-21T06:35:20;-0.30;99.90
8684;DHT22;4379;59.744;18.206;2023-03-21T06:37:48;-0.40;99.90
8684;DHT22;4379;59.744;18.206;2023-03-21T06:40:15;-0.50;99.90
8684;DHT22;4379;59.744;18.206;2023-03-21T06:42:42;-0.40;99.90
8684;DHT22;4379;59.744;18.206;2023-03-21T06:45:10;-0.40;99.90
8684;DHT22;4379;59.744;18.206;2023-03-21T06:47:37;-0.20;99.90
8684;DHT22;4379;59.744;18.206;2023-03-21T06:50:05;-0.10;99.90
8684;DHT22;4379;59.744;18.206;2023-03-21T06:52:33;0.00;99.90
8684;DHT22;4379;59.744;18.206;2023-03-21T06:55:00;0.20;99.90
8684;DHT22;4379;59.744;18.206;2023-03-21T06:57:27;0.30;99.90
8684;DHT22;4379;59.744;18.206;2023-03-21T06:59:54;0.40;99.90
8684;DHT22;4379;59.744;18.206;2023-03-21T07:02:21;0.20;99.90
8684;DHT22;4379;59.744;18.206;2023-03-21T07:04:49;0.00;99.90
8684;DHT22;4379;59.744;18.206;2023-03-21T07:07:16;0.00;99.90
8684;DHT22;4379;59.744;18.206;2023-03-21T07:09:43;0.20;99.90
8684;DHT22;4379;59.744;18.206;2023-03-21T07:12:11;0.20;99.90
8684;DHT22;4379;59.744;18.206;2023-03-21T07:14:38;0.30;99.90
8684;DHT22;4379;59.744;18.206;2023-03-21T07:17:05;0.30;99.90
8684;DHT22;4379;59.744;18.206;2023-03-21T07:19:32;0.50;99.90
8684;DHT22;4379;59.744;18.206;2023-03-21T07:21:59;0.50;99.90
8684;DHT22;4379;59.744;18.206;2023-03-21T07:24:27;0.40;99.90
8684;DHT22;4379;59.744;18.206;2023-03-21T07:26:54;0.50;99.90
8684;DHT22;4379;59.744;18.206;2023-03-21T07:29:22;0.50;99.90
8684;DHT22;4379;59.744;18.206;2023-03-21T07:31:50;0.50;99.90
8684;DHT22;4379;59.744;18.206;2023-03-21T07:34:18;0.50;99.90
8684;DHT22;4379;59.744;18.206;2023-03-21T07:36:45;0.40;99.90
8684;DHT22;4379;59.744;18.206;2023-03-21T07:39:12;0.60;99.90
8684;DHT22;4379;59.744;18.206;2023-03-21T07:41:39;0.80;99.90
8684;DHT22;4379;59.744;18.206;2023-03-21T07:44:06;0.80;99.90
8684;DHT22;4379;59.744;18.206;2023-03-21T07:46:36;0.70;99.90
8684;DHT22;4379;59.744;18.206;2023-03-21T07:49:04;0.90;99.90
8684;DHT22;4379;59.744;18.206;2023-03-21T07:51:32;1.00;99.90
8684;DHT22;4379;59.744;18.206;2023-03-21T07:54:01;1.10;99.90
8684;DHT22;4379;59.744;18.206;2023-03-21T07:56:28;1.00;99.90
8684;DHT22;4379;59.744;18.206;2023-03-21T07:58:56;0.90;99.90
8684;DHT22;4379;59.744;18.206;2023-03-21T08:01:24;1.00;99.90
8684;DHT22;4379;59.744;18.206;2023-03-21T08:03:51;1.10;99.90
8684;DHT22;4379;59.744;18.206;2023-03-21T08:06:20;1.30;99.90
8684;DHT22;4379;59.744;18.206;2023-03-21T08:08:47;1.50;99.90
8684;DHT22;4379;59.744;18.206;2023-03-21T08:11:15;1.60;99.90
8684;DHT22;4379;59.744;18.206;2023-03-21T08:13:42;1.50;99.90
8684;DHT22;4379;59.744;18.206;2023-03-21T08:16:09;1.60;99.90
8684;DHT22;4379;59.744;18.206;2023-03-21T08:18:36;1.80;99.90
8684;DHT22;4379;59.744;18.206;2023-03-21T08:21:04;2.20;99.90
8684;DHT22;4379;59.744;18.206;2023-03-21T08:23:33;2.10;99.90
8684;DHT22;4379;59.744;18.206;2023-03-21T08:26:01;2.00;99.90
8684;DHT22;4379;59.744;18.206;2023-03-21T08:28:29;1.80;99.90
8684;DHT22;4379;59.744;18.206;2023-03-21T08:30:56;1.90;99.90
8684;DHT22;4379;59.744;18.206;2023-03-21T08:33:23;1.70;99.90
8684;DHT22;4379;59.744;18.206;2023-03-21T08:35:50;1.50;99.90
8684;DHT22;4379;59.744;18.206;2023-03-21T08:38:17;1.30;99.90
8684;DHT22;4379;59.744;18.206;2023-03-21T08:40:45;1.90;99.90
8684;DHT22;4379;59.744;18.206;2023-03-21T08:43:12;2.30;99.90
8684;DHT22;4379;59.744;18.206;2023-03-21T08:45:40;2.40;99.90
8684;DHT22;4379;59.744;18.206;2023-03-21T08:48:07;2.30;99.90
8684;DHT22;4379;59.744;18.206;2023-03-21T08:50:35;2.50;99.90
8684;DHT22;4379;59.744;18.206;2023-03-21T08:53:02;2.70;99.90
8684;DHT22;4379;59.744;18.206;2023-03-21T08:55:29;2.40;99.90
8684;DHT22;4379;59.744;18.206;2023-03-21T08:57:59;2.70;99.90
8684;DHT22;4379;59.744;18.206;2023-03-21T09:00:26;2.80;99.90
8684;DHT22;4379;59.744;18.206;2023-03-21T09:02:54;2.80;99.90
8684;DHT22;4379;59.744;18.206;2023-03-21T09:05:22;2.70;99.90
8684;DHT22;4379;59.744;18.206;2023-03-21T09:07:52;3.00;99.90
8684;DHT22;4379;59.744;18.206;2023-03-21T09:10:21;2.70;99.90
8684;DHT22;4379;59.744;18.206;2023-03-21T09:12:51;2.80;99.90
8684;DHT22;4379;59.744;18.206;2023-03-21T09:15:18;2.80;99.90
8684;DHT22;4379;59.744;18.206;2023-03-21T09:17:48;2.90;99.90
8684;DHT22;4379;59.744;18.206;2023-03-21T09:20:19;3.10;99.90
8684;DHT22;4379;59.744;18.206;2023-03-21T09:22:49;3.10;99.90
8684;DHT22;4379;59.744;18.206;2023-03-21T09:25:18;3.10;99.90
8684;DHT22;4379;59.744;18.206;2023-03-21T09:27:46;3.40;99.90
8684;DHT22;4379;59.744;18.206;2023-03-21T09:30:15;4.00;99.90
8684;DHT22;4379;59.744;18.206;2023-03-21T09:32:44;4.00;99.90
8684;DHT22;4379;59.744;18.206;2023-03-21T09:35:16;4.30;99.90
8684;DHT22;4379;59.744;18.206;2023-03-21T09:37:45;4.00;99.90
8684;DHT22;4379;59.744;18.206;2023-03-21T09:40:17;4.20;99.90
8684;DHT22;4379;59.744;18.206;2023-03-21T09:42:52;4.50;99.90
8684;DHT22;4379;59.744;18.206;2023-03-21T09:45:36;4.70;99.90
8684;DHT22;4379;59.744;18.206;2023-03-21T09:48:16;4.40;99.90
8684;DHT22;4379;59.744;18.206;2023-03-21T09:50:48;4.50;99.90
8684;DHT22;4379;59.744;18.206;2023-03-21T09:53:24;4.70;99.90
8684;DHT22;4379;59.744;18.206;2023-03-21T09:55:54;4.90;99.90
8684;DHT22;4379;59.744;18.206;2023-03-21T09:58:25;4.60;99.90
8684;DHT22;4379;59.744;18.206;2023-03-21T10:01:11;4.70;99.90
8684;DHT22;4379;59.744;18.206;2023-03-21T10:03:48;4.80;99.90
8684;DHT22;4379;59.744;18.206;2023-03-21T10:06:22;4.60;99.90
8684;DHT22;4379;59.744;18.206;2023-03-21T10:09:03;4.50;99.90
8684;DHT22;4379;59.744;18.206;2023-03-21T10:11:44;4.20;99.90
8684;DHT22;4379;59.744;18.206;2023-03-21T10:17:08;4.60;99.90
8684;DHT22;4379;59.744;18.206;2023-03-21T10:19:40;4.70;99.90
8684;DHT22;4379;59.744;18.206;2023-03-21T10:22:12;5.00;99.90
8684;DHT22;4379;59.744;18.206;2023-03-21T10:24:42;5.00;99.90
8684;DHT22;4379;59.744;18.206;2023-03-21T10:27:10;5.00;99.90
8684;DHT22;4379;59.744;18.206;2023-03-21T10:29:42;5.30;99.90
8684;DHT22;4379;59.744;18.206;2023-03-21T10:32:15;5.20;99.90
8684;DHT22;4379;59.744;18.206;2023-03-21T10:34:55;5.90;99.90
8684;DHT22;4379;59.744;18.206;2023-03-21T10:37:27;5.90;99.90
8684;DHT22;4379;59.744;18.206;2023-03-21T10:39:55;5.40;99.90
8684;DHT22;4379;59.744;18.206;2023-03-21T10:42:28;5.70;99.90
8684;DHT22;4379;59.744;18.206;2023-03-21T10:44:57;5.60;99.90
8684;DHT22;4379;59.744;18.206;2023-03-21T10:47:32;5.50;99.90
8684;DHT22;4379;59.744;18.206;2023-03-21T10:50:05;5.50;99.90
8684;DHT22;4379;59.744;18.206;2023-03-21T10:52:37;5.80;99.90
8684;DHT22;4379;59.744;18.206;2023-03-21T10:55:20;6.30;99.90
8684;DHT22;4379;59.744;18.206;2023-03-21T10:57:54;6.30;99.90
8684;DHT22;4379;59.744;18.206;2023-03-21T11:00:34;6.30;99.90
8684;DHT22;4379;59.744;18.206;2023-03-21T11:03:02;6.30;99.90
8684;DHT22;4379;59.744;18.206;2023-03-21T11:05:38;6.30;99.90
8684;DHT22;4379;59.744;18.206;2023-03-21T11:08:17;6.10;99.90
8684;DHT22;4379;59.744;18.206;2023-03-21T11:14:22;6.00;99.90
8684;DHT22;4379;59.744;18.206;2023-03-21T11:16:28;6.40;99.90
8684;DHT22;4379;59.744;18.206;2023-03-21T11:19:01;6.80;99.90
8684;DHT22;4379;59.744;18.206;2023-03-21T11:21:35;6.70;99.90
8684;DHT22;4379;59.744;18.206;2023-03-21T11:24:03;6.50;99.90
8684;DHT22;4379;59.744;18.206;2023-03-21T11:26:35;6.30;99.90
8684;DHT22;4379;59.744;18.206;2023-03-21T11:31:56;6.50;99.90
8684;DHT22;4379;59.744;18.206;2023-03-21T11:34:30;6.30;99.90
8684;DHT22;4379;59.744;18.206;2023-03-21T11:36:59;6.60;99.90
8684;DHT22;4379;59.744;18.206;2023-03-21T11:39:36;6.80;99.90
8684;DHT22;4379;59.744;18.206;2023-03-21T11:42:27;7.00;99.90
8684;DHT22;4379;59.744;18.206;2023-03-21T11:45:09;7.00;99.90
8684;DHT22;4379;59.744;18.206;2023-03-21T11:47:37;6.80;99.90
8684;DHT22;4379;59.744;18.206;2023-03-21T11:50:15;6.80;99.90
8684;DHT22;4379;59.744;18.206;2023-03-21T11:52:52;6.70;99.90
8684;DHT22;4379;59.744;18.206;2023-03-21T12:00:55;7.20;99.90
8684;DHT22;4379;59.744;18.206;2023-03-21T12:09:40;7.20;99.90
8684;DHT22;4379;59.744;18.206;2023-03-21T12:15:02;7.00;99.90
8684;DHT22;4379;59.744;18.206;2023-03-21T12:17:42;7.10;99.90
8684;DHT22;4379;59.744;18.206;2023-03-21T12:20:36;7.10;99.90
8684;DHT22;4379;59.744;18.206;2023-03-21T12:23:27;7.00;99.90
8684;DHT22;4379;59.744;18.206;2023-03-21T12:40:34;6.80;99.90
8684;DHT22;4379;59.744;18.206;2023-03-21T12:43:43;6.80;99.90
8684;DHT22;4379;59.744;18.206;2023-03-21T12:46:21;6.90;99.90
8684;DHT22;4379;59.744;18.206;2023-03-21T12:48:50;7.00;99.90
8684;DHT22;4379;59.744;18.206;2023-03-21T12:51:22;7.20;99.90
8684;DHT22;4379;59.744;18.206;2023-03-21T12:57:02;7.30;99.90
8684;DHT22;4379;59.744;18.206;2023-03-21T13:02:30;7.20;99.90
8684;DHT22;4379;59.744;18.206;2023-03-21T13:07:32;7.40;99.90
8684;DHT22;4379;59.744;18.206;2023-03-21T13:10:15;7.70;99.90
8684;DHT22;4379;59.744;18.206;2023-03-21T13:20:56;7.20;99.90
8684;DHT22;4379;59.744;18.206;2023-03-21T13:23:31;7.00;99.90
8684;DHT22;4379;59.744;18.206;2023-03-21T13:25:59;7.30;99.90
8684;DHT22;4379;59.744;18.206;2023-03-21T13:28:29;7.10;99.90
8684;DHT22;4379;59.744;18.206;2023-03-21T13:31:26;7.10;99.90
8684;DHT22;4379;59.744;18.206;2023-03-21T13:33:59;7.00;99.90
8684;DHT22;4379;59.744;18.206;2023-03-21T13:36:30;7.10;99.90
8684;DHT22;4379;59.744;18.206;2023-03-21T13:39:04;6.90;99.90
8684;DHT22;4379;59.744;18.206;2023-03-21T13:41:37;6.90;99.90
8684;DHT22;4379;59.744;18.206;2023-03-21T13:44:22;6.80;99.90
8684;DHT22;4379;59.744;18.206;2023-03-21T13:46:59;6.70;99.90
8684;DHT22;4379;59.744;18.206;2023-03-21T13:49:37;6.60;99.90
8684;DHT22;4379;59.744;18.206;2023-03-21T13:57:05;6.30;99.90
8684;DHT22;4379;59.744;18.206;2023-03-21T13:59:43;6.10;99.90
8684;DHT22;4379;59.744;18.206;2023-03-21T14:04:40;6.00;99.90
8684;DHT22;4379;59.744;18.206;2023-03-21T14:07:28;5.90;99.90
8684;DHT22;4379;59.744;18.206;2023-03-21T14:10:21;5.90;99.90
8684;DHT22;4379;59.744;18.206;2023-03-21T14:12:50;5.80;99.90
8684;DHT22;4379;59.744;18.206;2023-03-21T14:15:43;5.90;99.90
8684;DHT22;4379;59.744;18.206;2023-03-21T14:18:24;5.90;99.90
8684;DHT22;4379;59.744;18.206;2023-03-21T14:21:20;5.70;99.90
8684;DHT22;4379;59.744;18.206;2023-03-21T14:23:58;5.60;99.90
8684;DHT22;4379;59.744;18.206;2023-03-21T14:26:32;5.60;99.90
8684;DHT22;4379;59.744;18.206;2023-03-21T14:29:02;5.50;99.90
8684;DHT22;4379;59.744;18.206;2023-03-21T14:31:38;5.30;99.90
8684;DHT22;4379;59.744;18.206;2023-03-21T14:34:05;5.20;99.90
8684;DHT22;4379;59.744;18.206;2023-03-21T14:36:38;5.40;99.90
8684;DHT22;4379;59.744;18.206;2023-03-21T14:39:20;5.40;99.90
8684;DHT22;4379;59.744;18.206;2023-03-21T14:41:55;5.30;99.90
8684;DHT22;4379;59.744;18.206;2023-03-21T14:44:34;5.30;99.90
8684;DHT22;4379;59.744;18.206;2023-03-21T14:47:23;5.20;99.90
8684;DHT22;4379;59.744;18.206;2023-03-21T14:49:50;5.40;99.90
8684;DHT22;4379;59.744;18.206;2023-03-21T14:52:39;5.20;99.90
8684;DHT22;4379;59.744;18.206;2023-03-21T14:55:13;5.20;99.90
8684;DHT22;4379;59.744;18.206;2023-03-21T14:57:41;5.10;99.90
8684;DHT22;4379;59.744;18.206;2023-03-21T15:00:28;5.00;99.90
8684;DHT22;4379;59.744;18.206;2023-03-21T15:02:57;5.00;99.90
8684;DHT22;4379;59.744;18.206;2023-03-21T15:05:31;4.90;99.90
8684;DHT22;4379;59.744;18.206;2023-03-21T15:10:33;4.90;99.90
8684;DHT22;4379;59.744;18.206;2023-03-21T15:13:12;5.00;99.90
8684;DHT22;4379;59.744;18.206;2023-03-21T15:15:40;5.00;99.90
8684;DHT22;4379;59.744;18.206;2023-03-21T15:18:12;4.90;99.90
8684;DHT22;4379;59.744;18.206;2023-03-21T15:20:41;5.00;99.90
8684;DHT22;4379;59.744;18.206;2023-03-21T15:23:13;4.90;99.90
8684;DHT22;4379;59.744;18.206;2023-03-21T15:25:40;4.80;99.90
8684;DHT22;4379;59.744;18.206;2023-03-21T15:28:12;4.70;99.90
8684;DHT22;4379;59.744;18.206;2023-03-21T15:30:49;4.70;99.90
8684;DHT22;4379;59.744;18.206;2023-03-21T15:33:17;4.80;99.90
8684;DHT22;4379;59.744;18.206;2023-03-21T15:35:51;4.90;99.90
8684;DHT22;4379;59.744;18.206;2023-03-21T15:38:36;4.90;99.90
8684;DHT22;4379;59.744;18.206;2023-03-21T15:41:32;4.90;99.90
8684;DHT22;4379;59.744;18.206;2023-03-21T15:51:50;4.90;99.90
8684;DHT22;4379;59.744;18.206;2023-03-21T15:54:29;4.70;99.90
8684;DHT22;4379;59.744;18.206;2023-03-21T15:57:03;4.60;99.90
8684;DHT22;4379;59.744;18.206;2023-03-21T15:59:39;4.50;99.90
8684;DHT22;4379;59.744;18.206;2023-03-21T16:02:28;4.50;99.90
8684;DHT22;4379;59.744;18.206;2023-03-21T16:05:24;4.60;99.90
8684;DHT22;4379;59.744;18.206;2023-03-21T16:07:52;4.50;99.90
8684;DHT22;4379;59.744;18.206;2023-03-21T16:10:38;4.40;99.90
8684;DHT22;4379;59.744;18.206;2023-03-21T16:13:05;4.50;99.90
8684;DHT22;4379;59.744;18.206;2023-03-21T16:15:33;4.40;99.90
8684;DHT22;4379;59.744;18.206;2023-03-21T16:18:01;4.40;99.90
8684;DHT22;4379;59.744;18.206;2023-03-21T16:20:35;4.30;99.90
8684;DHT22;4379;59.744;18.206;2023-03-21T16:23:03;4.40;99.90
8684;DHT22;4379;59.744;18.206;2023-03-21T16:25:32;4.40;99.90
8684;DHT22;4379;59.744;18.206;2023-03-21T16:27:59;4.30;99.90
8684;DHT22;4379;59.744;18.206;2023-03-21T16:30:26;4.40;99.90
8684;DHT22;4379;59.744;18.206;2023-03-21T16:32:54;4.40;99.90
8684;DHT22;4379;59.744;18.206;2023-03-21T16:35:22;4.30;99.90
8684;DHT22;4379;59.744;18.206;2023-03-21T16:37:50;4.30;99.90
8684;DHT22;4379;59.744;18.206;2023-03-21T16:40:29;4.30;99.90
8684;DHT22;4379;59.744;18.206;2023-03-21T16:42:57;4.30;99.90
8684;DHT22;4379;59.744;18.206;2023-03-21T16:45:25;4.30;99.90
8684;DHT22;4379;59.744;18.206;2023-03-21T16:47:55;4.30;99.90
8684;DHT22;4379;59.744;18.206;2023-03-21T16:50:27;4.30;99.90
8684;DHT22;4379;59.744;18.206;2023-03-21T16:52:56;4.30;99.90
8684;DHT22;4379;59.744;18.206;2023-03-21T16:55:24;4.20;99.90
8684;DHT22;4379;59.744;18.206;2023-03-21T16:57:52;4.00;99.90
8684;DHT22;4379;59.744;18.206;2023-03-21T17:00:23;4.00;99.90
8684;DHT22;4379;59.744;18.206;2023-03-21T17:02:52;3.80;99.90
8684;DHT22;4379;59.744;18.206;2023-03-21T17:05:25;3.90;99.90
8684;DHT22;4379;59.744;18.206;2023-03-21T17:07:53;3.90;99.90
8684;DHT22;4379;59.744;18.206;2023-03-21T17:10:23;3.70;99.90
8684;DHT22;4379;59.744;18.206;2023-03-21T17:12:51;3.70;99.90
8684;DHT22;4379;59.744;18.206;2023-03-21T17:15:19;3.60;99.90
8684;DHT22;4379;59.744;18.206;2023-03-21T17:17:47;3.60;99.90
8684;DHT22;4379;59.744;18.206;2023-03-21T17:20:21;3.50;99.90
8684;DHT22;4379;59.744;18.206;2023-03-21T17:22:48;3.30;99.90
8684;DHT22;4379;59.744;18.206;2023-03-21T17:25:16;3.30;99.90
8684;DHT22;4379;59.744;18.206;2023-03-21T17:27:44;3.40;99.90
8684;DHT22;4379;59.744;18.206;2023-03-21T17:30:25;3.40;99.90
8684;DHT22;4379;59.744;18.206;2023-03-21T17:32:54;3.50;99.90
8684;DHT22;4379;59.744;18.206;2023-03-21T17:35:22;3.40;99.90
8684;DHT22;4379;59.744;18.206;2023-03-21T17:37:50;3.30;99.90
8684;DHT22;4379;59.744;18.206;2023-03-21T17:40:21;3.30;99.90
8684;DHT22;4379;59.744;18.206;2023-03-21T17:42:50;3.20;99.90
8684;DHT22;4379;59.744;18.206;2023-03-21T17:45:18;3.20;99.90
8684;DHT22;4379;59.744;18.206;2023-03-21T17:47:46;3.10;99.90
8684;DHT22;4379;59.744;18.206;2023-03-21T17:50:23;3.00;99.90
8684;DHT22;4379;59.744;18.206;2023-03-21T17:52:51;3.10;99.90
8684;DHT22;4379;59.744;18.206;2023-03-21T17:55:19;3.20;99.90
8684;DHT22;4379;59.744;18.206;2023-03-21T17:57:48;3.20;99.90
8684;DHT22;4379;59.744;18.206;2023-03-21T18:00:25;3.30;99.90
8684;DHT22;4379;59.744;18.206;2023-03-21T18:02:56;3.30;99.90
8684;DHT22;4379;59.744;18.206;2023-03-21T18:05:24;3.20;99.90
8684;DHT22;4379;59.744;18.206;2023-03-21T18:07:55;3.20;99.90
8684;DHT22;4379;59.744;18.206;2023-03-21T18:10:41;3.10;99.90
8684;DHT22;4379;59.744;18.206;2023-03-21T18:13:09;3.10;99.90